Terminal Aerodrome Forecast
Issued by NWS Riverton, WY

Home | Current Version | Previous Version | Text Only | Print | Product List | Glossary On
Versions: 1 2 3 4 5 6 7 8 9 10 11 12
000
FTUS45 KRIW 252336
TAFRIW
TAF
KRIW 252336Z 2600/2624 04008KT P6SM FEW080
     FM260400 09007KT P6SM SKC
     FM261900 20011G21KT P6SM SCT110 BKN200=

USA.gov is the U.S. government's official web portal to all federal, state and local government web resources and services.